Weather observations for the past three days for
Gonzales Roger M. Dreyer Memorial
Metric (Imperial)
Date Time (cdt) Wind (kph) Vis. (km) Weather Sky Cond. Temperature (ºC) Relative Humidity Wind Chill (°C) Heat Index (°C) Pressure Precipitation (cm)
Air Dwpt 6 hour altimeter (cm) sea level (mb) 1 hr 3 hr 6 hr
Max. Min.
25 00:55 SE 11 11.27 Mostly Cloudy BKN015 26.6 25.3 33.1 26.6 93% 30 75.64 0.0
25 00:35 SE 7 11.27 Fair CLR 26.7 25.2 92% 30 75.64 0.0
25 00:15 SE 9 11.27 Partly Cloudy SCT075 27 25.1 89% 31 75.64 0.0
24 23:55 SE 6 16.09 Mostly Cloudy SCT015 BKN070 27.2 25 88% 31 75.67 0.0
24 23:35 E 9 16.09 Mostly Cloudy SCT015 BKN070 27.7 24.9 85% 32 75.67 0.0
24 23:15 S 9 16.09 Fair CLR 27.7 24.8 84% 32 75.62 0.0
24 22:55 SE 15 16.09 Fair CLR 28 24.6 82% 32 75.59 0.0
24 22:35 SE 20 G 28 16.09 Fair CLR 28.2 24.5 80% 33 75.57 0.0
24 22:15 SE 13 G 26 16.09 Fair CLR 28.6 24.4 78% 33 75.54 0.0
24 21:55 S 15 16.09 Fair CLR 28.9 24.5 77% 34 75.51 0.0
24 21:35 S 15 G 28 16.09 Fair CLR 29.2 24.6 76% 34 75.49 0.0
24 21:15 SE 13 16.09 Fair CLR 29.5 24.8 76% 35 75.46 0.0
24 20:55 SE 11 16.09 Fair CLR 30 25 75% 36 75.46 0.0
24 20:35 SE 15 16.09 Fair CLR 30.2 25.2 75% 37 75.44 0.0
24 20:15 SE 15 16.09 Fair CLR 30.5 25.3 74% 37 75.44 0.0
24 19:55 SE 15 G 26 16.09 Fair CLR 31.4 25.2 70% 39 75.41 0.0
24 19:35 S 24 G 31 16.09 Fair CLR 32 25 67% 39 75.41 0.0
24 19:15 S 17 G 30 16.09 Fair CLR 32.5 24.9 64% 40 75.41 0.0
24 18:55 SE 20 G 31 16.09 Fair CLR 33.3 24.7 36.7 33.3 61% 41 75.41 0.0
24 18:35 S 17 G 28 16.09 Fair CLR 34.2 24 55% 41 75.39 0.0
24 18:15 S 20 G 33 16.09 Fair CLR 34.4 24 55% 41 75.41 0.0
24 17:55 S 19 16.09 Partly Cloudy SCT047 35 23.9 53% 42 75.41 0.0
24 17:35 S 24 G 33 16.09 Fair CLR 35.1 23.6 51% 41 75.41 0.0
24 17:15 S 24 G 33 16.09 Fair CLR 35.5 23.5 50% 42 75.41 0.0
24 16:55 S 22 G 35 16.09 Partly Cloudy SCT050 35.9 23.5 49% 42 75.41 0.0
24 16:35 S 26 G 33 16.09 Fair CLR 36.2 23.4 48% 43 75.41 0.0
24 16:15 S 19 G 31 16.09 Fair CLR 36 23.4 48% 42 75.41 0.0
24 15:55 S 28 G 39 16.09 Fair CLR 36.3 23.4 47% 43 75.44 0.0
24 15:35 S 20 G 30 16.09 Fair CLR 36.5 23.7 48% 43 75.46 0.0
24 15:15 S 26 G 35 16.09 Fair CLR 36.5 23.7 48% 43 75.49 0.0
24 14:55 S 24 G 37 16.09 Fair CLR 36.5 23.2 46% 43 75.49 0.0
24 14:35 S 22 G 37 16.09 Fair CLR 36.2 23.3 47% 42 75.49 0.0
24 14:15 S 19 G 39 16.09 Fair CLR 36 23.7 49% 43 75.51 0.0
24 13:55 S 24 G 41 16.09 Fair CLR 35.7 23.4 49% 42 75.51 0.0
24 13:35 S 26 G 39 16.09 Fair CLR 35.6 23.6 50% 42 75.54 0.0
24 13:15 S 19 G 33 11.27 Fair CLR 35.1 24.5 54% 43 75.57 0.0
24 12:55 S 26 G 33 11.27 Fair CLR 34.8 24.7 34.8 26.1 56% 43 75.57 0.0
24 12:35 S 26 G 37 16.09 Fair CLR 34 24.9 59% 42 75.62 0.0
24 12:15 SE 22 G 31 16.09 Partly Cloudy SCT035 SCT041 33.7 25.2 61% 42 75.62 0.0
24 11:55 S 22 16.09 Fair CLR 33.1 24.7 61% 40 75.64 0.0
24 11:35 S 20 G 33 16.09 Fair CLR 32.8 25 64% 40 75.64 0.0
24 11:15 S 19 G 30 16.09 Fair CLR 32.2 24.9 65% 39 75.64 0.0
24 10:55 S 19 G 33 11.27 Partly Cloudy SCT024 SCT037 31.6 24.7 67% 38 75.64 0.0
24 10:35 S 15 16.09 Mostly Cloudy BKN022 BKN030 31.2 25.2 70% 38 75.64 0.0
24 10:15 S 15 G 31 11.27 Partly Cloudy SCT020 SCT030 30.6 25.1 72% 37 75.64 0.0
24 09:55 S 17 11.27 Mostly Cloudy BKN020 BKN030 30.1 25 74% 36 75.67 0.0
24 09:35 S 17 G 33 11.27 Overcast OVC016 29 25.2 80% 35 75.67 0.0
24 09:15 S 19 11.27 Overcast OVC014 28.9 25.6 82% 35 75.64 0.0
24 08:55 S 19 11.27 Overcast OVC012 28 25.6 87% 33 75.64 0.0
24 08:35 SE 11 11.27 Overcast BKN014 OVC022 27.4 25.5 89% 32 75.62 0.0
24 08:15 SE 9 8.05 Fog/Mist BKN013 OVC022 27 25.5 92% 31 75.62 0.0
24 07:55 SE 7 8.05 Fog/Mist BKN013 OVC020 26.5 25.2 93% 30 75.62 0.0
24 07:35 SE 6 8.05 Fog/Mist OVC020 26.5 25.1 92% 29 75.62 0.0
24 07:15 Calm 8.05 Fog/Mist SCT014 OVC022 26.2 24.9 93% 29 75.59 0.0
24 06:55 S 7 8.05 Fog/Mist SCT014 OVC022 26.2 24.7 27 26.2 91% 29 75.57 0.0
24 06:35 S 7 11.27 Overcast BKN014 OVC024 26.5 24.7 90% 29 75.57 0.0
24 06:15 S 9 11.27 Overcast BKN016 OVC024 26.6 24.7 89% 30 75.57 0.0
24 05:55 S 11 11.27 Overcast BKN018 OVC024 26.7 24.8 89% 30 75.54 0.0
24 05:35 S 11 11.27 Overcast BKN016 OVC022 26.8 24.7 88% 30 75.54 0.0
24 05:15 S 11 11.27 Overcast BKN018 OVC022 26.8 24.7 88% 30 75.54 0.0
24 04:55 S 11 11.27 Overcast OVC018 26.8 24.6 88% 30 75.54 0.0
24 04:35 S 13 11.27 Overcast OVC016 26.8 24.6 88% 30 75.54 0.0
24 04:15 S 11 11.27 Overcast OVC018 26.8 24.5 87% 30 75.54 0.0
24 03:55 S 11 16.09 Overcast OVC016 26.8 24.5 87% 30 75.54 0.0
24 03:35 S 11 16.09 Overcast OVC016 26.8 24.6 88% 30 75.54 0.0
24 03:15 S 11 16.09 Overcast OVC014 26.8 24.5 87% 30 75.54 0.0
24 02:55 S 19 16.09 Overcast OVC014 26.7 24.5 88% 30 75.54 0.0
24 02:35 S 15 16.09 Overcast OVC014 26.6 24.5 88% 29 75.54 0.0
24 02:15 S 13 16.09 Overcast OVC012 26.5 24.5 89% 29 75.57 0.0
24 01:55 S 17 16.09 Overcast OVC012 26.6 24.5 88% 29 75.59 0.0
24 01:35 S 15 G 30 16.09 Overcast OVC012 26.8 24.6 88% 30 75.59 0.0
24 01:15 S 22 G 31 16.09 Overcast OVC012 26.8 24.6 88% 30 75.62 0.0
24 00:55 S 20 G 33 16.09 Overcast OVC012 26.8 24.6 31.5 26.8 88% 30 75.62 0.0
24 00:35 S 24 G 31 16.09 Overcast OVC012 27 24.7 87% 30 75.64 0.0
24 00:15 S 22 G 35 16.09 Overcast OVC012 27 24.7 87% 30 75.67 0.0
23 23:55 S 20 G 39 16.09 Overcast OVC014 27 24.5 86% 30 75.67 0.0
23 23:35 SE 26 G 35 16.09 Overcast OVC014 27 24.5 86% 30 75.67 0.0
23 23:15 SE 24 G 31 16.09 Overcast OVC016 27.1 24.2 84% 30 75.67 0.0
23 22:55 SE 19 G 30 16.09 Overcast OVC018 27.2 24.1 83% 31 75.67 0.0
23 22:35 SE 13 G 26 16.09 Overcast OVC018 27.3 24.1 83% 31 75.67 0.0
23 22:15 SE 20 G 39 16.09 Partly Cloudy SCT020 27.5 23.9 81% 31 75.64 0.0
23 21:55 SE 19 16.09 Fair CLR 27.7 23.6 78% 31 75.64 0.0
23 21:35 SE 15 16.09 Fair CLR 28 23.3 76% 31 75.62 0.0
23 21:15 SE 22 G 33 16.09 Fair CLR 28.5 23.1 73% 32 75.62 0.0
23 20:55 SE 20 G 37 16.09 Fair CLR 28.8 22.6 69% 32 75.57 0.0
23 20:35 SE 22 G 31 16.09 Fair CLR 29 22.8 69% 33 75.54 0.0
23 20:15 SE 17 G 28 16.09 Fair CLR 29.6 23 68% 34 75.51 0.0
23 19:55 SE 28 G 35 16.09 Fair CLR 30.1 22.7 65% 34 75.49 0.0
23 19:35 SE 19 G 35 16.09 Fair CLR 30.5 23.1 65% 35 75.49 0.0
23 19:15 SE 19 G 39 16.09 Fair CLR 31.1 23 62% 36 75.49 0.0
23 18:55 SE 22 G 37 16.09 Partly Cloudy SCT041 31.5 23 34.5 31.5 61% 36 75.49 0.0
23 18:35 SE 20 G 39 16.09 Mostly Cloudy SCT041 BKN050 31.9 23.2 60% 37 75.49 0.0
23 18:15 SE 24 G 37 16.09 Partly Cloudy SCT048 32 23.4 60% 37 75.49 0.0
23 17:55 SE 24 G 31 16.09 Mostly Cloudy BKN046 BKN050 32.6 23.9 60% 39 75.49 0.0
23 17:35 SE 24 G 37 16.09 Mostly Cloudy SCT048 BKN050 32.6 23 57% 38 75.51 0.0
23 17:15 SE 31 G 39 16.09 Mostly Cloudy SCT044 BKN055 32.7 23.4 58% 38 75.54 0.0
23 16:55 SE 22 G 39 16.09 Mostly Cloudy SCT043 SCT050 BKN065 33 23.6 58% 39 75.54 0.0
23 16:35 SE 26 G 37 16.09 Partly Cloudy SCT044 SCT050 SCT060 33.6 23.6 56% 40 75.57 0.0
23 16:15 SE 20 G 43 16.09 Partly Cloudy SCT044 SCT050 SCT065 34.1 23.9 55% 41 75.57 0.0
23 15:55 SE 26 G 39 16.09 Mostly Cloudy SCT044 BKN065 34.1 23.7 55% 40 75.59 0.0
23 15:35 SE 31 G 39 16.09 Mostly Cloudy SCT046 SCT050 BKN065 34 23.8 55% 40 75.62 0.0
23 15:15 S 28 G 37 16.09 Partly Cloudy SCT046 SCT055 SCT070 34.4 24 55% 41 75.64 0.0
23 14:55 SE 22 G 41 16.09 Mostly Cloudy BKN046 BKN055 BKN070 33.3 23.2 55% 39 75.67 0.0
23 14:35 S 19 G 35 16.09 Mostly Cloudy SCT046 BKN065 34.2 23.8 55% 41 75.67 0.0
23 14:15 SE 28 G 37 16.09 Mostly Cloudy SCT043 BKN050 BKN065 34.2 23.8 55% 41 75.67 0.0
23 13:55 SE 26 G 39 16.09 Mostly Cloudy BKN043 BKN050 33.3 23.8 57% 39 75.67 0.0
23 13:35 SE 26 G 37 16.09 Mostly Cloudy BKN041 BKN050 33.5 23.9 57% 40 75.67 0.0
23 13:15 S 24 G 35 16.09 Mostly Cloudy BKN038 BKN050 BKN055 33.9 24.5 58% 41 75.69 0.0
23 12:55 SE 24 G 35 16.09 Mostly Cloudy BKN039 BKN045 32.9 24.4 33.2 26.6 61% 40 75.72 0.0
23 12:35 SE 19 G 33 16.09 Partly Cloudy SCT035 SCT043 SCT048 33 24.6 61% 40 75.74 0.0
23 12:15 SE 24 G 33 16.09 Mostly Cloudy SCT030 BKN037 BKN046 33.2 24.7 61% 40 75.77 0.0
23 11:55 SE 19 G 28 16.09 Mostly Cloudy SCT030 BKN035 BKN045 32.3 24.9 65% 39 75.77 0.0
23 11:35 SE 17 G 28 16.09 Mostly Cloudy SCT030 BKN034 BKN041 31.6 24.6 66% 38 75.77 0.0
23 11:15 S 15 G 26 16.09 Mostly Cloudy SCT027 BKN033 BKN041 31.8 25.1 68% 39 75.79 0.0
23 10:55 SE 15 G 26 16.09 Mostly Cloudy BKN027 BKN032 BKN040 31 25 70% 38 75.79 0.0
23 10:35 S 17 16.09 Overcast BKN025 OVC032 30.6 25.1 72% 37 75.79 0.0
23 10:15 SE 20 G 26 16.09 Overcast BKN021 OVC026 29.8 24.8 75% 36 75.79 0.0
23 09:55 SE 19 G 28 11.27 Overcast BKN019 OVC033 29.6 25.1 77% 36 75.77 0.0
23 09:35 SE 19 16.09 Overcast BKN017 OVC024 29 25 79% 35 75.77 0.0
23 09:15 SE 15 11.27 Overcast BKN017 BKN024 OVC031 28.7 25.1 81% 34 75.74 0.0
23 08:55 SE 19 G 26 11.27 Overcast BKN015 BKN022 OVC033 28.2 25.1 83% 33 75.74 0.0
23 08:35 SE 15 16.09 Overcast BKN015 BKN024 OVC034 27.7 25.2 86% 32 75.72 0.0
23 08:15 SE 15 G 26 16.09 Overcast OVC015 27.3 25.1 88% 31 75.69 0.0
23 07:55 SE 13 16.09 Overcast BKN013 BKN020 OVC028 27 25 89% 31 75.72 0.0
23 07:35 SE 7 16.09 Overcast SCT013 SCT022 OVC032 26.7 25 90% 30 75.72 0.0
23 07:15 SE 6 16.09 Overcast BKN015 BKN020 OVC032 26.7 24.9 90% 30 75.72 0.0
23 06:55 SE 6 16.09 Overcast BKN015 OVC028 26.7 24.8 26.7 26.4 89% 30 75.72 0.0
23 06:35 SE 9 16.09 Overcast BKN013 BKN020 OVC028 26.6 24.7 89% 30 75.72 0.0
23 06:15 SE 11 16.09 Overcast SCT016 OVC028 26.6 24.7 89% 30 75.69 0.0
23 05:55 SE 11 16.09 Overcast SCT018 OVC028 26.5 24.6 89% 29 75.69 0.0
23 05:35 SE 15 16.09 Overcast SCT012 SCT018 OVC030 26.5 24.7 90% 29 75.69 0.0
23 05:15 SE 11 16.09 Overcast BKN014 OVC028 26.5 24.7 90% 29 75.67 0.0
23 04:55 SE 15 16.09 Overcast BKN012 BKN019 OVC025 26.5 24.7 90% 29 75.67 0.0
23 04:35 SE 9 16.09 Overcast BKN012 OVC024 26.5 24.7 90% 29 75.67 0.0
23 04:15 SE 9 16.09 Overcast BKN012 OVC020 26.5 24.8 90% 29 75.67 0.0
23 03:55 SE 9 16.09 Overcast BKN012 OVC018 26.5 24.8 90% 29 75.67 0.0
23 03:35 SE 9 16.09 Overcast OVC012 26.5 24.8 90% 29 75.69 0.0
23 03:15 SE 9 16.09 Overcast OVC012 26.5 25 92% 29 75.69 0.0
23 02:55 SE 11 16.09 Overcast OVC012 26.5 25 92% 29 75.74 0.0
23 02:35 SE 9 16.09 Overcast OVC012 26.6 25 91% 30 75.74 0.0
23 02:15 SE 11 16.09 Overcast OVC010 26.7 25 90% 30 75.79 0.0
23 01:55 SE 13 16.09 Overcast OVC010 26.5 25 92% 29 75.77 0.0
23 01:35 SE 13 16.09 Overcast OVC010 26.5 25 92% 29 75.79 0.0
23 01:15 SE 13 16.09 Overcast OVC012 26.5 24.8 90% 29 75.77 0.0
23 00:55 SE 15 G 28 16.09 Partly Cloudy SCT012 26.5 24.7 31.2 26.5 90% 29 75.74 0.0
23 00:35 SE 17 16.09 Fair CLR 26.5 24.7 90% 29 75.74 0.0
23 00:15 SE 20 G 30 16.09 Fair CLR 26.8 24.8 89% 30 75.77 0.0
22 23:55 SE 24 G 31 16.09 Partly Cloudy SCT021 27 24.8 88% 31 75.74 0.0
22 23:35 SE 15 G 30 16.09 Overcast OVC019 27.4 25 87% 31 75.79 0.0
22 23:15 E 17 16.09 Overcast OVC017 27.7 25 85% 32 75.82 0.0
22 22:55 SE 15 16.09 Overcast OVC017 27.7 24.8 84% 32 75.82 0.0
22 22:35 E 9 16.09 Overcast OVC019 28 24.8 83% 33 75.79 0.0
22 22:15 SE 7 16.09 Overcast BKN021 OVC027 28 24.7 82% 32 75.79 0.0
22 21:55 SE 11 16.09 Mostly Cloudy SCT024 BKN031 BKN037 28.1 24.7 82% 33 75.74 0.0
22 21:35 SE 19 G 28 16.09 Mostly Cloudy SCT021 BKN031 BKN037 28.5 24.7 80% 33 75.67 0.0
22 21:15 SE 17 G 30 16.09 Overcast OVC031 28.6 24.8 80% 34 75.64 0.0
22 20:55 SE 17 G 30 16.09 Overcast OVC033 29 25 79% 35 75.62 0.0
22 20:35 SE 20 G 28 16.09 Overcast SCT025 OVC033 29.3 25 78% 35 75.62 0.0
22 20:15 SE 19 G 33 11.27 Overcast SCT025 OVC036 29.6 25 76% 36 75.59 0.0
22 19:55 SE 15 G 31 11.27 Overcast SCT027 BKN034 OVC041 30 25 75% 36 75.57 0.0
22 19:35 SE 17 16.09 Mostly Cloudy BKN030 BKN038 30.5 24.9 72% 37 75.57 0.0
22 19:15 S 19 G 31 16.09 Partly Cloudy SCT032 30.7 24.8 71% 37 75.54 0.0
22 18:55 SE 26 G 35 16.09 Partly Cloudy SCT035 31.3 24.7 34.7 31.3 68% 38 75.46 0.0
22 18:35 S 19 G 33 16.09 Mostly Cloudy BKN037 BKN044 31.7 24.5 66% 38 75.49 0.0
22 18:15 S 19 G 33 16.09 Partly Cloudy SCT039 SCT044 32.5 23.8 60% 38 75.49 0.0
22 17:55 S 31 G 41 16.09 Partly Cloudy SCT039 SCT045 32.8 23.9 59% 39 75.46 0.0
22 17:35 S 20 G 39 16.09 Partly Cloudy SCT042 SCT048 33 24.1 60% 39 75.44 0.0
22 17:15 S 26 G 41 16.09 Partly Cloudy SCT038 SCT046 32.7 24.5 62% 39 75.49 0.0
22 16:55 SE 30 G 37 16.09 Partly Cloudy SCT040 SCT048 33.5 24.6 60% 41 75.46 0.0
22 16:35 S 22 G 39 16.09 Mostly Cloudy SCT042 BKN050 33.8 24.5 58% 41 75.49 0.0
22 16:15 S 26 G 35 16.09 Partly Cloudy SCT041 SCT046 33.8 24.3 58% 41 75.49 0.0
22 15:55 S 24 G 44 16.09 Partly Cloudy SCT042 34.2 24.3 56% 41 75.54 0.0
22 15:35 S 20 G 35 16.09 Mostly Cloudy BKN044 BKN049 34.1 24.3 57% 41 75.57 0.0
22 15:15 S 24 G 37 16.09 Mostly Cloudy BKN044 34 24 56% 41 75.62 0.0
22 14:55 S 28 G 35 16.09 Mostly Cloudy SCT044 BKN050 33.7 23.6 56% 40 75.64 0.0
22 14:35 S 26 G 33 16.09 Partly Cloudy SCT044 SCT050 34.1 23.6 54% 40 75.64 0.0
22 14:15 SE 22 G 31 16.09 Mostly Cloudy SCT041 BKN048 33.6 23.8 56% 40 75.67 0.0
22 13:55 S 19 G 33 16.09 Mostly Cloudy BKN041 BKN050 33.6 24.1 58% 40 75.69 0.0
22 13:35 SE 15 G 30 16.09 Mostly Cloudy BKN039 BKN046 33.4 24 58% 40 75.72 0.0
22 13:15 SE 22 G 31 16.09 Mostly Cloudy SCT035 BKN041 33.3 24.6 60% 40 75.72 0.0
22 12:55 S 22 G 30 16.09 Mostly Cloudy BKN034 BKN041 32.8 24.5 32.8 26.2 62% 40 75.74 0.0
22 12:35 SE 17 G 26 16.09 Partly Cloudy SCT034 32.6 24.5 62% 39 75.77 0.0
22 12:15 SE 22 G 31 16.09 Mostly Cloudy BKN034 BKN042 32 24.1 63% 38 75.77 0.0
22 11:55 SE 20 16.09 Mostly Cloudy SCT029 BKN037 31.9 24.4 65% 38 75.79 0.0
22 11:35 SE 19 16.09 Overcast SCT026 BKN034 OVC039 31 24.4 68% 37 75.82 0.0
22 11:15 S 17 G 26 16.09 Overcast BKN024 OVC034 30 24.2 71% 35 75.82 0.0
22 10:55 SE 9 16.09 Overcast BKN024 OVC035 29.6 24.4 74% 35 75.84 0.0
22 10:35 SE 15 16.09 Overcast BKN020 BKN027 OVC035 29.8 24.8 75% 36 75.84 0.0
22 10:15 SE 17 16.09 Overcast BKN018 OVC029 29.1 24.8 78% 35 75.82 0.0
22 09:55 SE 15 16.09 Overcast BKN016 OVC021 28.5 24.9 81% 34 75.82 0.0
22 09:35 SE 13 16.09 Overcast SCT014 BKN023 OVC039 28.1 24.9 83% 33 75.84 0.0
22 09:15 SE 11 11.27 Overcast BKN012 BKN018 OVC024 27.7 25.2 86% 32 75.84 0.0
22 08:55 SE 6 11.27 Overcast BKN012 OVC018 27.3 25.2 88% 31 75.84 0.0
22 08:35 SE 7 8.05 Fog/Mist SCT010 BKN016 OVC021 27.2 25.5 90% 31 75.82 0.0
22 08:15 SE 6 8.05 Fog/Mist OVC014 26.8 25.3 92% 30 75.79 0.0
22 07:55 SE 9 6.44 Fog/Mist BKN012 BKN022 OVC030 26.7 25.5 93% 30 75.77 0.0
22 07:35 E 6 6.44 Fog/Mist SCT014 BKN020 OVC026 26.5 25.2 93% 30 75.74 0.0
22 07:15 SE 6 6.44 Fog/Mist SCT015 OVC026 26.2 25 93% 29 75.74 0.0
22 06:55 SE 7 6.44 Fog/Mist SCT013 OVC026 26.4 25.1 27 26.2 93% 29 75.74 0.0
22 06:35 SE 6 8.05 Fog/Mist SCT011 BKN016 OVC026 26.3 25 93% 29 75.74 0.0
22 06:15 Calm 8.05 Fog/Mist BKN012 OVC021 26.3 25 93% 29 75.74 0.0
22 05:55 S 7 8.05 Fog/Mist OVC012 26.5 25 92% 29 75.72 0.0
22 05:35 S 9 8.05 Fog/Mist OVC010 26.5 25 92% 29 75.69 0.0
22 05:15 S 7 8.05 Fog/Mist OVC010 26.5 25 92% 29 75.67 0.0
22 04:55 S 13 11.27 Overcast OVC010 26.5 25 92% 29 75.67 0.0
22 04:35 SE 15 G 26 11.27 Overcast OVC010 26.5 25.1 92% 29 75.67 0.0
22 04:15 S 11 11.27 Overcast OVC010 26.5 25.1 92% 29 75.67 0.0
22 03:55 S 15 11.27 Overcast OVC008 26.5 25.2 93% 30 75.69 0.0
22 03:35 S 17 G 28 11.27 Overcast OVC008 26.5 25.2 93% 30 75.69 0.0
22 03:15 S 17 11.27 Overcast OVC008 26.5 25.2 93% 30 75.69 0.0
22 02:55 S 15 11.27 Overcast OVC010 26.5 25.1 92% 29 75.69 0.0
22 02:35 SE 15 11.27 Overcast OVC010 26.7 25.2 92% 30 75.69 0.0
22 02:15 SE 13 11.27 Overcast OVC010 26.7 25.2 92% 30 75.69 0.0
22 01:55 S 17 11.27 Overcast OVC012 26.6 25.2 92% 30 75.72 0.0
22 01:35 S 11 11.27 Mostly Cloudy BKN012 26.6 25.1 92% 30 75.74 0.0
22 01:15 SE 19 11.27 Mostly Cloudy BKN012 BKN025 BKN038 26.8 25.1 90% 30 75.77 0.0
Date Time (cdt) Wind (kph) Vis. (km) Weather Sky Cond. Air Dwpt Max. Min. Relative Humidity Wind Chill (°C) Heat Index (°C) altimeter (cm) sea level (mb) 1 hr 3 hr 6 hr
6 hour
Temperature (ºC) Pressure Precipitation (cm)